Terminal Aerodrome Forecast
Issued by NWS

Home | Current Version | Previous Version | Graphics & Text | Print | Product List | Glossary On
Versions: 1 2 3 4 5 6 7 8 9 10 11 12 13 14 15 16 17 18 19 20
766
FTUS43 KICT 301019 AAA
TAFRSL
TAF AMD
KRSL 301019Z 3010/0106 31010KT P6SM OVC007
      TEMPO 3010/3014 3SM BR OVC003
     FM301800 29016KT P6SM BKN040
     FM010500 31014KT P6SM OVC025=

USA.gov is the U.S. government's official web portal to all federal, state and local government web resources and services.